sensor_id;sensor_type;location;lat;lon;timestamp;P1;durP1;ratioP1;P2;durP2;ratioP2
17955;SDS011;27666;51.498;11.966;2022-12-18T00:01:46;77.60;;;29.10;;
17955;SDS011;27666;51.498;11.966;2022-12-18T00:04:33;70.97;;;29.07;;
17955;SDS011;27666;51.498;11.966;2022-12-18T00:07:20;88.60;;;31.10;;
17955;SDS011;27666;51.498;11.966;2022-12-18T00:10:07;90.53;;;30.30;;
17955;SDS011;27666;51.498;11.966;2022-12-18T00:12:54;75.10;;;29.00;;
17955;SDS011;27666;51.498;11.966;2022-12-18T00:15:40;76.40;;;29.30;;
17955;SDS011;27666;51.498;11.966;2022-12-18T00:18:27;92.67;;;28.63;;
17955;SDS011;27666;51.498;11.966;2022-12-18T00:21:13;68.07;;;27.57;;
17955;SDS011;27666;51.498;11.966;2022-12-18T00:24:02;66.67;;;25.77;;
17955;SDS011;27666;51.498;11.966;2022-12-18T00:26:48;59.27;;;23.43;;
17955;SDS011;27666;51.498;11.966;2022-12-18T00:29:35;53.43;;;23.93;;
17955;SDS011;27666;51.498;11.966;2022-12-18T00:32:22;90.53;;;24.73;;
17955;SDS011;27666;51.498;11.966;2022-12-18T00:35:08;52.50;;;22.67;;
17955;SDS011;27666;51.498;11.966;2022-12-18T00:37:54;50.63;;;21.80;;
17955;SDS011;27666;51.498;11.966;2022-12-18T00:40:42;45.00;;;22.20;;
17955;SDS011;27666;51.498;11.966;2022-12-18T00:43:29;52.70;;;23.17;;
17955;SDS011;27666;51.498;11.966;2022-12-18T00:46:14;50.37;;;22.80;;
17955;SDS011;27666;51.498;11.966;2022-12-18T00:49:01;55.87;;;22.83;;
17955;SDS011;27666;51.498;11.966;2022-12-18T00:51:47;52.77;;;22.20;;
17955;SDS011;27666;51.498;11.966;2022-12-18T00:54:34;66.43;;;23.63;;
17955;SDS011;27666;51.498;11.966;2022-12-18T00:57:22;69.67;;;24.13;;
17955;SDS011;27666;51.498;11.966;2022-12-18T01:00:10;57.17;;;22.73;;
17955;SDS011;27666;51.498;11.966;2022-12-18T01:02:58;47.43;;;21.73;;
17955;SDS011;27666;51.498;11.966;2022-12-18T01:05:45;45.97;;;21.73;;
17955;SDS011;27666;51.498;11.966;2022-12-18T01:08:31;44.37;;;22.40;;
17955;SDS011;27666;51.498;11.966;2022-12-18T01:11:20;46.37;;;22.23;;
17955;SDS011;27666;51.498;11.966;2022-12-18T01:14:08;46.17;;;22.57;;
17955;SDS011;27666;51.498;11.966;2022-12-18T01:16:55;51.97;;;23.13;;
17955;SDS011;27666;51.498;11.966;2022-12-18T01:19:41;52.37;;;24.20;;
17955;SDS011;27666;51.498;11.966;2022-12-18T01:22:28;49.07;;;23.80;;
17955;SDS011;27666;51.498;11.966;2022-12-18T01:25:14;45.83;;;22.63;;
17955;SDS011;27666;51.498;11.966;2022-12-18T01:28:01;54.27;;;23.90;;
17955;SDS011;27666;51.498;11.966;2022-12-18T01:30:49;48.87;;;22.47;;
17955;SDS011;27666;51.498;11.966;2022-12-18T01:33:35;50.03;;;23.27;;
17955;SDS011;27666;51.498;11.966;2022-12-18T01:36:23;52.97;;;22.37;;
17955;SDS011;27666;51.498;11.966;2022-12-18T01:39:12;49.33;;;21.87;;
17955;SDS011;27666;51.498;11.966;2022-12-18T01:41:59;44.13;;;22.40;;
17955;SDS011;27666;51.498;11.966;2022-12-18T01:44:53;51.00;;;22.43;;
17955;SDS011;27666;51.498;11.966;2022-12-18T01:47:44;59.63;;;25.43;;
17955;SDS011;27666;51.498;11.966;2022-12-18T01:50:33;75.83;;;31.17;;
17955;SDS011;27666;51.498;11.966;2022-12-18T01:53:22;51.90;;;24.83;;
17955;SDS011;27666;51.498;11.966;2022-12-18T01:56:11;47.03;;;23.50;;
17955;SDS011;27666;51.498;11.966;2022-12-18T01:59:01;51.47;;;23.30;;
17955;SDS011;27666;51.498;11.966;2022-12-18T02:01:50;53.70;;;24.83;;
17955;SDS011;27666;51.498;11.966;2022-12-18T02:04:38;59.43;;;25.30;;
17955;SDS011;27666;51.498;11.966;2022-12-18T02:07:35;51.83;;;24.33;;
17955;SDS011;27666;51.498;11.966;2022-12-18T02:10:29;60.50;;;26.40;;
17955;SDS011;27666;51.498;11.966;2022-12-18T02:13:23;69.63;;;27.63;;
17955;SDS011;27666;51.498;11.966;2022-12-18T02:16:19;67.30;;;26.20;;
17955;SDS011;27666;51.498;11.966;2022-12-18T02:19:15;62.70;;;26.20;;
17955;SDS011;27666;51.498;11.966;2022-12-18T02:22:18;70.67;;;26.10;;
17955;SDS011;27666;51.498;11.966;2022-12-18T02:25:19;57.20;;;25.23;;
17955;SDS011;27666;51.498;11.966;2022-12-18T02:28:17;55.83;;;24.53;;
17955;SDS011;27666;51.498;11.966;2022-12-18T02:31:08;65.03;;;25.93;;
17955;SDS011;27666;51.498;11.966;2022-12-18T02:34:00;69.37;;;25.57;;
17955;SDS011;27666;51.498;11.966;2022-12-18T02:36:49;70.93;;;26.27;;
17955;SDS011;27666;51.498;11.966;2022-12-18T02:39:37;57.00;;;25.20;;
17955;SDS011;27666;51.498;11.966;2022-12-18T02:42:26;72.33;;;25.83;;
17955;SDS011;27666;51.498;11.966;2022-12-18T02:45:15;66.90;;;25.30;;
17955;SDS011;27666;51.498;11.966;2022-12-18T02:48:02;67.07;;;26.17;;
17955;SDS011;27666;51.498;11.966;2022-12-18T02:50:51;70.83;;;25.13;;
17955;SDS011;27666;51.498;11.966;2022-12-18T02:53:43;67.63;;;25.83;;
17955;SDS011;27666;51.498;11.966;2022-12-18T02:56:36;69.03;;;25.83;;
17955;SDS011;27666;51.498;11.966;2022-12-18T02:59:29;72.73;;;26.80;;
17955;SDS011;27666;51.498;11.966;2022-12-18T03:02:22;70.57;;;25.90;;
17955;SDS011;27666;51.498;11.966;2022-12-18T03:05:13;61.97;;;26.20;;
17955;SDS011;27666;51.498;11.966;2022-12-18T03:08:03;58.90;;;24.47;;
17955;SDS011;27666;51.498;11.966;2022-12-18T03:10:55;70.43;;;26.03;;
17955;SDS011;27666;51.498;11.966;2022-12-18T03:13:48;68.37;;;26.10;;
17955;SDS011;27666;51.498;11.966;2022-12-18T03:16:38;70.80;;;25.60;;
17955;SDS011;27666;51.498;11.966;2022-12-18T03:19:29;69.80;;;26.23;;
17955;SDS011;27666;51.498;11.966;2022-12-18T03:22:18;47.37;;;22.33;;
17955;SDS011;27666;51.498;11.966;2022-12-18T03:25:07;62.87;;;25.30;;
17955;SDS011;27666;51.498;11.966;2022-12-18T03:27:58;57.53;;;24.30;;
17955;SDS011;27666;51.498;11.966;2022-12-18T03:30:47;61.47;;;25.37;;
17955;SDS011;27666;51.498;11.966;2022-12-18T03:33:37;57.43;;;23.70;;
17955;SDS011;27666;51.498;11.966;2022-12-18T03:36:28;55.40;;;24.07;;
17955;SDS011;27666;51.498;11.966;2022-12-18T03:39:15;55.80;;;24.37;;
17955;SDS011;27666;51.498;11.966;2022-12-18T03:42:03;50.60;;;22.23;;
17955;SDS011;27666;51.498;11.966;2022-12-18T03:44:54;55.80;;;23.07;;
17955;SDS011;27666;51.498;11.966;2022-12-18T03:47:44;54.20;;;22.87;;
17955;SDS011;27666;51.498;11.966;2022-12-18T03:50:39;55.03;;;22.97;;
17955;SDS011;27666;51.498;11.966;2022-12-18T03:53:35;48.90;;;22.10;;
17955;SDS011;27666;51.498;11.966;2022-12-18T03:56:25;55.27;;;23.03;;
17955;SDS011;27666;51.498;11.966;2022-12-18T03:59:15;53.57;;;23.27;;
17955;SDS011;27666;51.498;11.966;2022-12-18T04:02:03;60.50;;;23.47;;
17955;SDS011;27666;51.498;11.966;2022-12-18T04:04:52;55.53;;;22.87;;
17955;SDS011;27666;51.498;11.966;2022-12-18T04:07:42;49.43;;;21.80;;
17955;SDS011;27666;51.498;11.966;2022-12-18T04:10:32;58.87;;;23.10;;
17955;SDS011;27666;51.498;11.966;2022-12-18T04:13:22;48.70;;;21.33;;
17955;SDS011;27666;51.498;11.966;2022-12-18T04:16:08;53.30;;;21.27;;
17955;SDS011;27666;51.498;11.966;2022-12-18T04:18:55;50.27;;;22.17;;
17955;SDS011;27666;51.498;11.966;2022-12-18T04:21:41;60.90;;;23.67;;
17955;SDS011;27666;51.498;11.966;2022-12-18T04:24:28;54.17;;;23.63;;
17955;SDS011;27666;51.498;11.966;2022-12-18T04:27:15;56.03;;;21.53;;
17955;SDS011;27666;51.498;11.966;2022-12-18T04:30:02;47.33;;;21.50;;
17955;SDS011;27666;51.498;11.966;2022-12-18T04:32:50;50.60;;;21.07;;
17955;SDS011;27666;51.498;11.966;2022-12-18T04:35:36;45.90;;;21.30;;
17955;SDS011;27666;51.498;11.966;2022-12-18T04:38:23;44.40;;;20.57;;
17955;SDS011;27666;51.498;11.966;2022-12-18T04:41:09;46.03;;;19.57;;
17955;SDS011;27666;51.498;11.966;2022-12-18T04:43:57;49.50;;;20.67;;
17955;SDS011;27666;51.498;11.966;2022-12-18T04:46:44;50.63;;;22.20;;
17955;SDS011;27666;51.498;11.966;2022-12-18T04:49:30;55.37;;;22.13;;
17955;SDS011;27666;51.498;11.966;2022-12-18T04:52:16;58.07;;;22.87;;
17955;SDS011;27666;51.498;11.966;2022-12-18T04:55:03;48.17;;;21.10;;
17955;SDS011;27666;51.498;11.966;2022-12-18T04:57:50;51.23;;;22.50;;
17955;SDS011;27666;51.498;11.966;2022-12-18T05:00:38;57.40;;;21.07;;
17955;SDS011;27666;51.498;11.966;2022-12-18T05:03:24;57.13;;;22.47;;
17955;SDS011;27666;51.498;11.966;2022-12-18T05:06:11;56.73;;;22.87;;
17955;SDS011;27666;51.498;11.966;2022-12-18T05:08:57;61.80;;;23.77;;
17955;SDS011;27666;51.498;11.966;2022-12-18T05:11:44;54.07;;;24.07;;
17955;SDS011;27666;51.498;11.966;2022-12-18T05:14:31;62.73;;;24.63;;
17955;SDS011;27666;51.498;11.966;2022-12-18T05:17:19;64.03;;;24.03;;
17955;SDS011;27666;51.498;11.966;2022-12-18T05:20:05;56.30;;;24.00;;
17955;SDS011;27666;51.498;11.966;2022-12-18T05:22:53;55.03;;;24.47;;
17955;SDS011;27666;51.498;11.966;2022-12-18T05:25:39;55.03;;;23.70;;
17955;SDS011;27666;51.498;11.966;2022-12-18T05:28:27;55.20;;;22.53;;
17955;SDS011;27666;51.498;11.966;2022-12-18T05:31:15;52.27;;;23.07;;
17955;SDS011;27666;51.498;11.966;2022-12-18T05:34:03;57.70;;;22.57;;
17955;SDS011;27666;51.498;11.966;2022-12-18T05:36:49;54.73;;;23.57;;
17955;SDS011;27666;51.498;11.966;2022-12-18T05:39:36;49.83;;;23.60;;
17955;SDS011;27666;51.498;11.966;2022-12-18T05:42:22;59.83;;;24.63;;
17955;SDS011;27666;51.498;11.966;2022-12-18T05:45:08;52.43;;;23.43;;
17955;SDS011;27666;51.498;11.966;2022-12-18T05:47:55;53.00;;;22.07;;
17955;SDS011;27666;51.498;11.966;2022-12-18T05:50:44;59.83;;;23.77;;
17955;SDS011;27666;51.498;11.966;2022-12-18T05:53:31;56.60;;;22.83;;
17955;SDS011;27666;51.498;11.966;2022-12-18T05:56:18;50.47;;;23.03;;
17955;SDS011;27666;51.498;11.966;2022-12-18T05:59:06;57.27;;;24.40;;
17955;SDS011;27666;51.498;11.966;2022-12-18T06:01:52;60.00;;;24.67;;
17955;SDS011;27666;51.498;11.966;2022-12-18T06:04:39;59.57;;;22.87;;
17955;SDS011;27666;51.498;11.966;2022-12-18T06:07:27;56.43;;;24.03;;
17955;SDS011;27666;51.498;11.966;2022-12-18T06:10:13;53.90;;;20.50;;
17955;SDS011;27666;51.498;11.966;2022-12-18T06:13:00;58.80;;;24.17;;
17955;SDS011;27666;51.498;11.966;2022-12-18T06:15:46;47.90;;;22.60;;
17955;SDS011;27666;51.498;11.966;2022-12-18T06:18:33;50.17;;;22.30;;
17955;SDS011;27666;51.498;11.966;2022-12-18T06:21:19;55.43;;;23.23;;
17955;SDS011;27666;51.498;11.966;2022-12-18T06:24:07;53.43;;;22.17;;
17955;SDS011;27666;51.498;11.966;2022-12-18T06:26:54;60.40;;;23.73;;
17955;SDS011;27666;51.498;11.966;2022-12-18T06:29:40;53.97;;;22.33;;
17955;SDS011;27666;51.498;11.966;2022-12-18T06:32:27;52.37;;;21.07;;
17955;SDS011;27666;51.498;11.966;2022-12-18T06:35:13;50.13;;;23.57;;
17955;SDS011;27666;51.498;11.966;2022-12-18T06:38:00;47.97;;;22.13;;
17955;SDS011;27666;51.498;11.966;2022-12-18T06:40:48;51.77;;;22.27;;
17955;SDS011;27666;51.498;11.966;2022-12-18T06:43:35;54.60;;;23.53;;
17955;SDS011;27666;51.498;11.966;2022-12-18T06:46:22;56.97;;;23.03;;
17955;SDS011;27666;51.498;11.966;2022-12-18T06:49:08;53.00;;;21.80;;
17955;SDS011;27666;51.498;11.966;2022-12-18T06:51:55;48.43;;;20.63;;
17955;SDS011;27666;51.498;11.966;2022-12-18T06:54:41;53.77;;;20.50;;
17955;SDS011;27666;51.498;11.966;2022-12-18T06:57:28;34.07;;;17.07;;
17955;SDS011;27666;51.498;11.966;2022-12-18T07:00:15;36.80;;;17.70;;
17955;SDS011;27666;51.498;11.966;2022-12-18T07:03:02;43.67;;;19.70;;
17955;SDS011;27666;51.498;11.966;2022-12-18T07:05:48;38.37;;;18.87;;
17955;SDS011;27666;51.498;11.966;2022-12-18T07:08:34;49.63;;;21.03;;
17955;SDS011;27666;51.498;11.966;2022-12-18T07:11:21;48.53;;;21.60;;
17955;SDS011;27666;51.498;11.966;2022-12-18T07:14:09;50.80;;;20.97;;
17955;SDS011;27666;51.498;11.966;2022-12-18T07:16:56;51.73;;;21.03;;
17955;SDS011;27666;51.498;11.966;2022-12-18T07:19:43;47.70;;;21.23;;
17955;SDS011;27666;51.498;11.966;2022-12-18T07:22:30;47.73;;;20.93;;
17955;SDS011;27666;51.498;11.966;2022-12-18T07:25:17;64.77;;;30.03;;
17955;SDS011;27666;51.498;11.966;2022-12-18T07:28:03;58.03;;;26.40;;
17955;SDS011;27666;51.498;11.966;2022-12-18T07:30:52;52.20;;;22.07;;
17955;SDS011;27666;51.498;11.966;2022-12-18T07:33:40;49.03;;;21.73;;
17955;SDS011;27666;51.498;11.966;2022-12-18T07:36:27;50.73;;;26.73;;
17955;SDS011;27666;51.498;11.966;2022-12-18T07:39:13;53.07;;;24.73;;
17955;SDS011;27666;51.498;11.966;2022-12-18T07:42:00;49.00;;;22.10;;
17955;SDS011;27666;51.498;11.966;2022-12-18T07:45:05;50.60;;;21.53;;
17955;SDS011;27666;51.498;11.966;2022-12-18T07:47:53;44.83;;;20.53;;
17955;SDS011;27666;51.498;11.966;2022-12-18T07:50:40;44.13;;;22.30;;
17955;SDS011;27666;51.498;11.966;2022-12-18T07:53:26;45.37;;;20.87;;
17955;SDS011;27666;51.498;11.966;2022-12-18T07:56:12;40.70;;;21.00;;
17955;SDS011;27666;51.498;11.966;2022-12-18T07:59:11;49.40;;;22.10;;
17955;SDS011;27666;51.498;11.966;2022-12-18T08:01:58;41.83;;;20.27;;
17955;SDS011;27666;51.498;11.966;2022-12-18T08:04:46;45.50;;;21.83;;
17955;SDS011;27666;51.498;11.966;2022-12-18T08:07:32;40.27;;;20.07;;
17955;SDS011;27666;51.498;11.966;2022-12-18T08:10:19;39.70;;;18.97;;
17955;SDS011;27666;51.498;11.966;2022-12-18T08:13:06;46.70;;;20.97;;
17955;SDS011;27666;51.498;11.966;2022-12-18T08:15:56;46.53;;;22.33;;
17955;SDS011;27666;51.498;11.966;2022-12-18T08:18:42;49.77;;;22.67;;
17955;SDS011;27666;51.498;11.966;2022-12-18T08:21:30;68.03;;;28.67;;
17955;SDS011;27666;51.498;11.966;2022-12-18T08:24:17;54.83;;;27.23;;
17955;SDS011;27666;51.498;11.966;2022-12-18T08:27:03;48.27;;;24.00;;
17955;SDS011;27666;51.498;11.966;2022-12-18T08:30:10;47.80;;;20.87;;
17955;SDS011;27666;51.498;11.966;2022-12-18T08:32:57;40.17;;;20.73;;
17955;SDS011;27666;51.498;11.966;2022-12-18T08:35:43;43.50;;;20.40;;
17955;SDS011;27666;51.498;11.966;2022-12-18T08:38:32;39.07;;;18.93;;
17955;SDS011;27666;51.498;11.966;2022-12-18T08:41:19;40.43;;;20.73;;
17955;SDS011;27666;51.498;11.966;2022-12-18T08:44:06;41.70;;;21.53;;
17955;SDS011;27666;51.498;11.966;2022-12-18T08:47:10;37.90;;;19.57;;
17955;SDS011;27666;51.498;11.966;2022-12-18T08:49:57;49.63;;;22.13;;
17955;SDS011;27666;51.498;11.966;2022-12-18T08:52:43;34.17;;;18.80;;
17955;SDS011;27666;51.498;11.966;2022-12-18T08:55:32;42.17;;;21.50;;
17955;SDS011;27666;51.498;11.966;2022-12-18T08:58:18;55.57;;;22.73;;
17955;SDS011;27666;51.498;11.966;2022-12-18T09:01:06;40.03;;;22.43;;
17955;SDS011;27666;51.498;11.966;2022-12-18T09:03:54;42.53;;;20.30;;
17955;SDS011;27666;51.498;11.966;2022-12-18T09:06:41;44.83;;;22.63;;
17955;SDS011;27666;51.498;11.966;2022-12-18T09:09:28;46.50;;;23.63;;
17955;SDS011;27666;51.498;11.966;2022-12-18T09:12:16;46.40;;;23.10;;
17955;SDS011;27666;51.498;11.966;2022-12-18T09:15:02;46.13;;;23.00;;
17955;SDS011;27666;51.498;11.966;2022-12-18T09:17:49;39.93;;;23.27;;
17955;SDS011;27666;51.498;11.966;2022-12-18T09:20:37;38.03;;;21.20;;
17955;SDS011;27666;51.498;11.966;2022-12-18T09:23:24;28.43;;;13.23;;
17955;SDS011;27666;51.498;11.966;2022-12-18T09:26:11;33.13;;;15.17;;
17955;SDS011;27666;51.498;11.966;2022-12-18T09:28:58;24.77;;;12.83;;
17955;SDS011;27666;51.498;11.966;2022-12-18T09:31:45;24.80;;;11.77;;
17955;SDS011;27666;51.498;11.966;2022-12-18T09:34:31;24.23;;;12.67;;
17955;SDS011;27666;51.498;11.966;2022-12-18T09:37:18;19.33;;;11.93;;
17955;SDS011;27666;51.498;11.966;2022-12-18T09:40:04;21.60;;;12.13;;
17955;SDS011;27666;51.498;11.966;2022-12-18T09:42:53;19.93;;;11.13;;
17955;SDS011;27666;51.498;11.966;2022-12-18T09:45:45;21.87;;;12.87;;
17955;SDS011;27666;51.498;11.966;2022-12-18T09:48:35;24.87;;;12.57;;
17955;SDS011;27666;51.498;11.966;2022-12-18T09:51:27;24.67;;;11.70;;
17955;SDS011;27666;51.498;11.966;2022-12-18T09:54:16;21.83;;;11.10;;
17955;SDS011;27666;51.498;11.966;2022-12-18T09:57:12;20.67;;;12.00;;
17955;SDS011;27666;51.498;11.966;2022-12-18T10:00:03;26.43;;;12.43;;
17955;SDS011;27666;51.498;11.966;2022-12-18T10:02:58;24.73;;;12.30;;
17955;SDS011;27666;51.498;11.966;2022-12-18T10:05:52;20.57;;;12.17;;
17955;SDS011;27666;51.498;11.966;2022-12-18T10:08:49;20.97;;;11.07;;
17955;SDS011;27666;51.498;11.966;2022-12-18T10:11:43;19.67;;;12.13;;
17955;SDS011;27666;51.498;11.966;2022-12-18T10:14:39;26.43;;;12.73;;
17955;SDS011;27666;51.498;11.966;2022-12-18T10:17:33;18.67;;;10.37;;
17955;SDS011;27666;51.498;11.966;2022-12-18T10:20:28;22.87;;;10.90;;
17955;SDS011;27666;51.498;11.966;2022-12-18T10:23:20;19.50;;;10.10;;
17955;SDS011;27666;51.498;11.966;2022-12-18T10:26:11;17.03;;;9.83;;
17955;SDS011;27666;51.498;11.966;2022-12-18T10:28:58;21.70;;;10.37;;
17955;SDS011;27666;51.498;11.966;2022-12-18T10:31:49;15.80;;;10.00;;
17955;SDS011;27666;51.498;11.966;2022-12-18T10:34:36;23.97;;;9.47;;
17955;SDS011;27666;51.498;11.966;2022-12-18T10:37:24;16.93;;;9.30;;
17955;SDS011;27666;51.498;11.966;2022-12-18T10:40:13;16.73;;;9.80;;
17955;SDS011;27666;51.498;11.966;2022-12-18T10:43:11;16.97;;;9.97;;
17955;SDS011;27666;51.498;11.966;2022-12-18T10:46:15;17.53;;;9.47;;
17955;SDS011;27666;51.498;11.966;2022-12-18T10:49:05;18.70;;;9.63;;
17955;SDS011;27666;51.498;11.966;2022-12-18T10:52:05;15.87;;;9.47;;
17955;SDS011;27666;51.498;11.966;2022-12-18T10:54:56;19.00;;;9.77;;
17955;SDS011;27666;51.498;11.966;2022-12-18T10:57:46;16.57;;;9.20;;
17955;SDS011;27666;51.498;11.966;2022-12-18T11:00:32;21.73;;;9.60;;
17955;SDS011;27666;51.498;11.966;2022-12-18T11:03:28;25.10;;;12.73;;
17955;SDS011;27666;51.498;11.966;2022-12-18T11:06:17;17.43;;;9.93;;
17955;SDS011;27666;51.498;11.966;2022-12-18T11:09:18;20.07;;;8.90;;
17955;SDS011;27666;51.498;11.966;2022-12-18T11:12:15;15.90;;;9.60;;
17955;SDS011;27666;51.498;11.966;2022-12-18T11:15:04;16.30;;;9.40;;
17955;SDS011;27666;51.498;11.966;2022-12-18T11:17:52;18.27;;;10.93;;
17955;SDS011;27666;51.498;11.966;2022-12-18T11:20:39;17.60;;;9.57;;
17955;SDS011;27666;51.498;11.966;2022-12-18T11:23:26;23.67;;;9.90;;
17955;SDS011;27666;51.498;11.966;2022-12-18T11:26:13;14.93;;;9.37;;
17955;SDS011;27666;51.498;11.966;2022-12-18T11:29:08;16.43;;;9.73;;
17955;SDS011;27666;51.498;11.966;2022-12-18T11:32:20;18.07;;;10.00;;
17955;SDS011;27666;51.498;11.966;2022-12-18T11:35:19;16.50;;;9.73;;
17955;SDS011;27666;51.498;11.966;2022-12-18T11:38:13;16.40;;;9.63;;
17955;SDS011;27666;51.498;11.966;2022-12-18T11:41:13;16.57;;;8.77;;
17955;SDS011;27666;51.498;11.966;2022-12-18T11:44:05;15.43;;;9.77;;
17955;SDS011;27666;51.498;11.966;2022-12-18T11:46:59;19.37;;;10.13;;
17955;SDS011;27666;51.498;11.966;2022-12-18T11:49:50;15.07;;;9.10;;
17955;SDS011;27666;51.498;11.966;2022-12-18T11:52:38;15.27;;;10.07;;
17955;SDS011;27666;51.498;11.966;2022-12-18T11:55:28;18.90;;;9.67;;
17955;SDS011;27666;51.498;11.966;2022-12-18T11:58:29;16.67;;;9.07;;
17955;SDS011;27666;51.498;11.966;2022-12-18T12:01:33;12.63;;;8.60;;
17955;SDS011;27666;51.498;11.966;2022-12-18T12:04:38;15.70;;;8.70;;
17955;SDS011;27666;51.498;11.966;2022-12-18T12:07:43;14.67;;;8.17;;
17955;SDS011;27666;51.498;11.966;2022-12-18T12:10:42;13.83;;;8.53;;
17955;SDS011;27666;51.498;11.966;2022-12-18T12:13:40;20.80;;;8.57;;
17955;SDS011;27666;51.498;11.966;2022-12-18T12:16:36;14.13;;;8.30;;
17955;SDS011;27666;51.498;11.966;2022-12-18T12:19:33;15.27;;;9.97;;
17955;SDS011;27666;51.498;11.966;2022-12-18T12:22:28;17.13;;;9.50;;
17955;SDS011;27666;51.498;11.966;2022-12-18T12:25:26;15.87;;;9.37;;
17955;SDS011;27666;51.498;11.966;2022-12-18T12:28:20;15.53;;;9.03;;
17955;SDS011;27666;51.498;11.966;2022-12-18T12:31:18;16.47;;;10.00;;
17955;SDS011;27666;51.498;11.966;2022-12-18T12:34:17;17.70;;;10.60;;
17955;SDS011;27666;51.498;11.966;2022-12-18T12:37:11;17.90;;;9.70;;
17955;SDS011;27666;51.498;11.966;2022-12-18T12:40:10;14.50;;;9.17;;
17955;SDS011;27666;51.498;11.966;2022-12-18T12:43:31;16.07;;;9.57;;
17955;SDS011;27666;51.498;11.966;2022-12-18T12:46:22;17.10;;;8.73;;
17955;SDS011;27666;51.498;11.966;2022-12-18T12:49:11;13.70;;;8.00;;
17955;SDS011;27666;51.498;11.966;2022-12-18T12:52:03;15.37;;;7.87;;
17955;SDS011;27666;51.498;11.966;2022-12-18T12:54:53;16.47;;;8.67;;
17955;SDS011;27666;51.498;11.966;2022-12-18T12:57:43;15.17;;;8.63;;
17955;SDS011;27666;51.498;11.966;2022-12-18T13:00:36;16.37;;;9.57;;
17955;SDS011;27666;51.498;11.966;2022-12-18T13:03:32;16.73;;;9.43;;
17955;SDS011;27666;51.498;11.966;2022-12-18T13:06:33;15.03;;;9.57;;
17955;SDS011;27666;51.498;11.966;2022-12-18T13:09:33;13.83;;;8.70;;
17955;SDS011;27666;51.498;11.966;2022-12-18T13:12:50;13.67;;;8.77;;
17955;SDS011;27666;51.498;11.966;2022-12-18T13:15:45;14.03;;;9.53;;
17955;SDS011;27666;51.498;11.966;2022-12-18T13:18:33;13.47;;;8.83;;
17955;SDS011;27666;51.498;11.966;2022-12-18T13:21:21;17.03;;;9.87;;
17955;SDS011;27666;51.498;11.966;2022-12-18T13:24:14;16.30;;;10.13;;
17955;SDS011;27666;51.498;11.966;2022-12-18T13:30:42;14.70;;;9.33;;
17955;SDS011;27666;51.498;11.966;2022-12-18T13:33:39;16.47;;;9.60;;
17955;SDS011;27666;51.498;11.966;2022-12-18T13:36:48;14.70;;;9.67;;
17955;SDS011;27666;51.498;11.966;2022-12-18T13:39:36;17.57;;;9.63;;
17955;SDS011;27666;51.498;11.966;2022-12-18T13:42:38;22.87;;;10.40;;
17955;SDS011;27666;51.498;11.966;2022-12-18T13:46:00;19.80;;;11.60;;
17955;SDS011;27666;51.498;11.966;2022-12-18T13:48:51;20.03;;;12.27;;
17955;SDS011;27666;51.498;11.966;2022-12-18T13:51:42;20.30;;;12.40;;
17955;SDS011;27666;51.498;11.966;2022-12-18T13:54:33;22.10;;;11.63;;
17955;SDS011;27666;51.498;11.966;2022-12-18T13:57:25;24.70;;;13.33;;
17955;SDS011;27666;51.498;11.966;2022-12-18T14:00:19;24.40;;;13.13;;
17955;SDS011;27666;51.498;11.966;2022-12-18T14:03:30;20.87;;;12.40;;
17955;SDS011;27666;51.498;11.966;2022-12-18T14:06:16;22.30;;;12.27;;
17955;SDS011;27666;51.498;11.966;2022-12-18T14:09:03;21.43;;;13.00;;
17955;SDS011;27666;51.498;11.966;2022-12-18T14:11:53;22.20;;;13.53;;
17955;SDS011;27666;51.498;11.966;2022-12-18T14:15:02;23.20;;;12.07;;
17955;SDS011;27666;51.498;11.966;2022-12-18T14:17:50;24.93;;;14.10;;
17955;SDS011;27666;51.498;11.966;2022-12-18T14:20:39;22.87;;;13.50;;
17955;SDS011;27666;51.498;11.966;2022-12-18T14:23:38;24.27;;;13.10;;
17955;SDS011;27666;51.498;11.966;2022-12-18T14:26:27;28.98;;;17.95;;
17955;SDS011;27666;51.498;11.966;2022-12-18T14:29:22;31.10;;;15.63;;
17955;SDS011;27666;51.498;11.966;2022-12-18T14:32:11;22.80;;;14.67;;
17955;SDS011;27666;51.498;11.966;2022-12-18T14:35:12;21.27;;;14.00;;
17955;SDS011;27666;51.498;11.966;2022-12-18T14:41:13;27.77;;;14.70;;
17955;SDS011;27666;51.498;11.966;2022-12-18T14:44:04;30.43;;;13.77;;
17955;SDS011;27666;51.498;11.966;2022-12-18T14:46:52;28.20;;;14.23;;
17955;SDS011;27666;51.498;11.966;2022-12-18T14:49:39;24.97;;;13.53;;
17955;SDS011;27666;51.498;11.966;2022-12-18T14:52:28;30.53;;;15.33;;
17955;SDS011;27666;51.498;11.966;2022-12-18T14:55:19;26.90;;;15.70;;
17955;SDS011;27666;51.498;11.966;2022-12-18T14:58:10;30.93;;;15.33;;
17955;SDS011;27666;51.498;11.966;2022-12-18T15:01:00;28.03;;;15.87;;
17955;SDS011;27666;51.498;11.966;2022-12-18T15:03:46;31.47;;;16.07;;
17955;SDS011;27666;51.498;11.966;2022-12-18T15:06:34;25.77;;;14.87;;
17955;SDS011;27666;51.498;11.966;2022-12-18T15:09:22;31.50;;;14.47;;
17955;SDS011;27666;51.498;11.966;2022-12-18T15:12:19;33.07;;;16.37;;
17955;SDS011;27666;51.498;11.966;2022-12-18T15:18:34;26.00;;;14.80;;
17955;SDS011;27666;51.498;11.966;2022-12-18T15:21:26;26.50;;;14.87;;
17955;SDS011;27666;51.498;11.966;2022-12-18T15:24:16;32.60;;;16.67;;
17955;SDS011;27666;51.498;11.966;2022-12-18T15:27:20;29.70;;;15.17;;
17955;SDS011;27666;51.498;11.966;2022-12-18T15:33:16;29.37;;;15.50;;
17955;SDS011;27666;51.498;11.966;2022-12-18T15:36:09;31.17;;;15.53;;
17955;SDS011;27666;51.498;11.966;2022-12-18T15:38:57;36.03;;;20.75;;
17955;SDS011;27666;51.498;11.966;2022-12-18T15:41:48;35.50;;;16.83;;
17955;SDS011;27666;51.498;11.966;2022-12-18T15:44:53;32.43;;;17.53;;
17955;SDS011;27666;51.498;11.966;2022-12-18T15:47:40;33.27;;;16.23;;
17955;SDS011;27666;51.498;11.966;2022-12-18T15:50:27;29.00;;;15.73;;
17955;SDS011;27666;51.498;11.966;2022-12-18T15:53:14;30.73;;;16.23;;
17955;SDS011;27666;51.498;11.966;2022-12-18T15:56:00;31.13;;;16.93;;
17955;SDS011;27666;51.498;11.966;2022-12-18T15:59:07;26.60;;;14.57;;
17955;SDS011;27666;51.498;11.966;2022-12-18T16:01:57;32.93;;;16.57;;
17955;SDS011;27666;51.498;11.966;2022-12-18T16:04:44;37.40;;;18.50;;
17955;SDS011;27666;51.498;11.966;2022-12-18T16:07:31;32.80;;;16.90;;
17955;SDS011;27666;51.498;11.966;2022-12-18T16:10:17;29.43;;;16.00;;
17955;SDS011;27666;51.498;11.966;2022-12-18T16:13:04;33.43;;;18.10;;
17955;SDS011;27666;51.498;11.966;2022-12-18T16:15:51;38.40;;;17.67;;
17955;SDS011;27666;51.498;11.966;2022-12-18T16:18:39;37.27;;;17.97;;
17955;SDS011;27666;51.498;11.966;2022-12-18T16:21:26;37.67;;;18.77;;
17955;SDS011;27666;51.498;11.966;2022-12-18T16:24:18;35.87;;;17.43;;
17955;SDS011;27666;51.498;11.966;2022-12-18T16:27:06;32.20;;;17.17;;
17955;SDS011;27666;51.498;11.966;2022-12-18T16:29:53;34.90;;;17.03;;
17955;SDS011;27666;51.498;11.966;2022-12-18T16:32:39;35.63;;;18.03;;
17955;SDS011;27666;51.498;11.966;2022-12-18T16:35:27;34.50;;;18.07;;
17955;SDS011;27666;51.498;11.966;2022-12-18T16:38:13;39.93;;;18.07;;